createdAt,value
2017-11-03T00:01:33.392Z,99.40
2017-11-03T00:04:01.004Z,99.50
2017-11-03T00:06:28.508Z,99.40
2017-11-03T00:08:56.120Z,99.40
2017-11-03T00:11:23.658Z,99.00
2017-11-03T00:13:51.199Z,99.00
2017-11-03T00:16:18.869Z,99.00
2017-11-03T00:18:47.344Z,98.90
2017-11-03T00:21:14.873Z,98.70
2017-11-03T00:23:42.499Z,98.70
2017-11-03T00:26:10.029Z,99.10
2017-11-03T00:28:37.599Z,98.90
2017-11-03T00:31:05.926Z,99.20
2017-11-03T00:33:33.491Z,99.20
2017-11-03T00:36:01.075Z,99.00
2017-11-03T00:38:28.641Z,99.00
2017-11-03T00:40:56.308Z,99.20
2017-11-03T00:43:23.902Z,99.30
2017-11-03T00:45:51.458Z,99.40
2017-11-03T00:48:20.065Z,99.70
2017-11-03T00:50:47.723Z,99.70
2017-11-03T00:53:15.289Z,99.70
2017-11-03T00:55:42.824Z,99.50
2017-11-03T00:58:10.391Z,99.70
2017-11-03T01:00:38.907Z,99.60
2017-11-03T01:03:06.541Z,99.70
2017-11-03T01:05:34.092Z,99.70
2017-11-03T01:08:01.693Z,99.80
2017-11-03T01:10:29.250Z,99.90
2017-11-03T01:12:56.830Z,99.90
2017-11-03T01:15:24.422Z,99.90
2017-11-03T01:17:51.947Z,99.90
2017-11-03T01:20:19.500Z,99.90
2017-11-03T01:22:47.831Z,99.90
2017-11-03T01:25:15.368Z,99.90
2017-11-03T01:27:43.041Z,99.90
2017-11-03T01:30:10.623Z,99.90
2017-11-03T01:32:38.264Z,99.90
2017-11-03T01:35:05.819Z,99.90
2017-11-03T01:37:33.571Z,99.90
2017-11-03T01:40:01.134Z,99.90
2017-11-03T01:42:28.676Z,99.90
2017-11-03T01:44:56.289Z,99.90
2017-11-03T01:47:23.856Z,99.90
2017-11-03T01:49:51.381Z,99.90
2017-11-03T01:52:18.984Z,99.90
2017-11-03T01:54:46.588Z,99.90
2017-11-03T01:57:14.128Z,99.90
2017-11-03T01:59:41.857Z,99.90
2017-11-03T02:02:09.389Z,99.90
2017-11-03T02:04:37.548Z,99.90
2017-11-03T02:07:05.139Z,99.90
2017-11-03T02:09:32.826Z,99.90
2017-11-03T02:12:01.125Z,99.90
2017-11-03T02:14:28.790Z,99.90
2017-11-03T02:16:56.329Z,99.90
2017-11-03T02:19:23.928Z,99.90
2017-11-03T02:21:51.559Z,99.90
2017-11-03T02:24:19.131Z,99.90
2017-11-03T02:26:46.660Z,99.90
2017-11-03T02:29:14.961Z,99.90
2017-11-03T02:31:42.503Z,99.90
2017-11-03T02:34:10.804Z,99.90
2017-11-03T02:36:38.386Z,99.90
2017-11-03T02:39:05.913Z,99.90
2017-11-03T02:41:33.445Z,99.90
2017-11-03T02:44:01.036Z,99.90
2017-11-03T02:46:28.594Z,99.90
2017-11-03T02:48:56.146Z,99.90
2017-11-03T02:51:23.725Z,99.90
2017-11-03T02:53:51.285Z,99.90
2017-11-03T02:56:18.852Z,99.90
2017-11-03T02:58:46.418Z,99.90
2017-11-03T03:01:13.981Z,99.90
2017-11-03T03:03:41.699Z,99.90
2017-11-03T03:06:09.571Z,99.90
2017-11-03T03:08:37.118Z,99.90
2017-11-03T03:11:04.654Z,99.90
2017-11-03T03:13:32.288Z,99.90
2017-11-03T03:16:00.606Z,99.90
2017-11-03T03:18:28.168Z,99.90
2017-11-03T03:20:56.608Z,99.70
2017-11-03T03:23:24.916Z,99.10
2017-11-03T03:25:52.471Z,99.10
2017-11-03T03:28:20.797Z,99.10
2017-11-03T03:30:48.329Z,99.10
2017-11-03T03:33:15.875Z,98.80
2017-11-03T03:35:43.431Z,98.90
2017-11-03T03:38:11.028Z,98.90
2017-11-03T03:40:38.984Z,98.80
2017-11-03T03:43:06.585Z,98.70
2017-11-03T03:45:34.901Z,98.50
2017-11-03T03:48:02.416Z,98.50
2017-11-03T03:50:30.792Z,98.80
2017-11-03T03:52:59.102Z,98.70
2017-11-03T03:55:26.637Z,98.70
2017-11-03T03:57:59.955Z,98.60
2017-11-03T04:00:27.505Z,98.50
2017-11-03T04:02:55.113Z,98.40
2017-11-03T04:05:22.734Z,98.40
2017-11-03T04:07:50.262Z,98.50
2017-11-03T04:10:18.667Z,98.40
2017-11-03T04:12:46.227Z,98.40
2017-11-03T04:15:13.805Z,98.60
2017-11-03T04:17:41.349Z,98.40
2017-11-03T04:20:08.948Z,98.20
2017-11-03T04:22:36.501Z,98.30
2017-11-03T04:25:04.806Z,98.40
2017-11-03T04:27:33.132Z,98.50
2017-11-03T04:30:00.677Z,98.40
2017-11-03T04:32:28.240Z,98.40
2017-11-03T04:34:55.768Z,98.50
2017-11-03T04:37:23.297Z,98.30
2017-11-03T04:39:50.840Z,98.30
2017-11-03T04:42:18.416Z,98.30
2017-11-03T04:44:46.743Z,98.60
2017-11-03T04:47:14.299Z,98.30
2017-11-03T04:49:41.853Z,98.10
2017-11-03T04:52:09.407Z,98.20
2017-11-03T04:54:36.928Z,98.10
2017-11-03T04:57:04.490Z,98.20
2017-11-03T04:59:32.042Z,97.90
2017-11-03T05:02:00.370Z,98.00
2017-11-03T05:04:27.965Z,98.00
2017-11-03T05:06:56.324Z,97.70
2017-11-03T05:09:23.887Z,98.30
2017-11-03T05:11:51.527Z,97.80
2017-11-03T05:14:19.088Z,97.80
2017-11-03T05:16:46.658Z,97.70
2017-11-03T05:19:14.266Z,97.60
2017-11-03T05:21:42.574Z,97.70
2017-11-03T05:24:10.162Z,97.90
2017-11-03T05:26:37.713Z,97.80
2017-11-03T05:29:05.281Z,97.50
2017-11-03T05:31:32.902Z,97.70
2017-11-03T05:34:00.563Z,97.80
2017-11-03T05:36:28.078Z,97.20
2017-11-03T05:38:56.495Z,97.60
2017-11-03T05:41:24.056Z,97.50
2017-11-03T05:43:51.608Z,97.40
2017-11-03T05:46:19.137Z,97.40
2017-11-03T05:48:46.678Z,97.30
2017-11-03T05:51:14.237Z,97.80
2017-11-03T05:53:41.789Z,98.00
2017-11-03T05:56:09.380Z,97.70
2017-11-03T05:58:37.674Z,98.00
2017-11-03T06:01:05.548Z,98.00
2017-11-03T06:03:33.113Z,98.20
2017-11-03T06:06:00.689Z,98.60
2017-11-03T06:08:28.258Z,98.50
2017-11-03T06:10:55.960Z,98.40
2017-11-03T06:13:23.492Z,98.30
2017-11-03T06:15:51.048Z,98.10
2017-11-03T06:18:18.659Z,98.10
2017-11-03T06:20:46.191Z,98.10
2017-11-03T06:23:13.746Z,98.00
2017-11-03T06:25:42.094Z,98.20
2017-11-03T06:28:09.666Z,98.10
2017-11-03T06:30:38.133Z,98.70
2017-11-03T06:33:06.840Z,98.70
2017-11-03T06:35:35.247Z,98.90
2017-11-03T06:38:02.786Z,98.90
2017-11-03T06:40:30.324Z,99.10
2017-11-03T06:42:58.623Z,99.20
2017-11-03T06:45:26.123Z,99.20
2017-11-03T06:47:53.691Z,99.10
2017-11-03T06:50:21.240Z,99.10
2017-11-03T06:52:48.774Z,99.40
2017-11-03T06:55:16.522Z,99.10
2017-11-03T06:57:44.061Z,99.00
2017-11-03T07:00:12.472Z,98.80
2017-11-03T07:02:40.058Z,98.80
2017-11-03T07:05:07.589Z,98.80
2017-11-03T07:07:35.142Z,98.80
2017-11-03T07:10:02.711Z,98.80
2017-11-03T07:12:30.250Z,99.00
2017-11-03T07:14:57.846Z,99.10
2017-11-03T07:17:25.442Z,99.10
2017-11-03T07:19:53.722Z,99.10
2017-11-03T07:22:22.053Z,99.20
2017-11-03T07:24:49.608Z,99.20
2017-11-03T07:27:17.148Z,99.20
2017-11-03T07:29:44.672Z,99.20
2017-11-03T07:32:13.001Z,99.10
2017-11-03T07:34:40.533Z,99.10
2017-11-03T07:37:08.078Z,98.80
2017-11-03T07:39:35.684Z,99.00
2017-11-03T07:42:03.232Z,98.80
2017-11-03T07:44:30.899Z,98.80
2017-11-03T07:46:59.153Z,98.90
2017-11-03T07:49:26.738Z,98.80
2017-11-03T07:51:54.296Z,99.00
2017-11-03T07:54:21.862Z,99.00
2017-11-03T07:56:49.377Z,99.00
2017-11-03T07:59:16.935Z,98.90
2017-11-03T08:01:44.595Z,98.90
2017-11-03T08:04:12.171Z,98.70
2017-11-03T08:06:39.747Z,98.60
2017-11-03T08:09:07.371Z,98.40
2017-11-03T08:11:34.890Z,98.10
2017-11-03T08:14:03.267Z,98.50
2017-11-03T08:16:31.589Z,98.30
2017-11-03T08:18:59.146Z,98.20
2017-11-03T08:21:26.685Z,98.10
2017-11-03T08:23:54.291Z,98.10
2017-11-03T08:26:21.821Z,98.30
2017-11-03T08:28:49.354Z,98.20
2017-11-03T08:31:17.774Z,98.00
2017-11-03T08:33:45.396Z,97.60
2017-11-03T08:36:12.937Z,97.50
2017-11-03T08:38:41.293Z,97.50
2017-11-03T08:41:08.848Z,97.50
2017-11-03T08:43:36.404Z,97.20
2017-11-03T08:46:04.022Z,96.60
2017-11-03T08:48:31.565Z,96.60
2017-11-03T08:50:59.104Z,96.50
2017-11-03T08:53:27.456Z,95.70
2017-11-03T08:55:55.014Z,95.70
2017-11-03T08:58:22.569Z,95.60
2017-11-03T09:00:50.137Z,95.60
2017-11-03T09:03:17.685Z,95.30
2017-11-03T09:05:45.227Z,94.10
2017-11-03T09:08:12.939Z,94.10
2017-11-03T09:10:40.505Z,93.80
2017-11-03T09:13:08.811Z,94.80
2017-11-03T09:15:36.393Z,94.80
2017-11-03T09:18:03.957Z,94.80
2017-11-03T09:20:31.517Z,95.00
2017-11-03T09:23:00.676Z,95.10
2017-11-03T09:25:28.201Z,95.10
2017-11-03T09:27:57.416Z,94.70
2017-11-03T09:30:24.962Z,94.70
2017-11-03T09:32:52.512Z,94.10
2017-11-03T09:35:21.805Z,94.60
2017-11-03T09:37:50.121Z,94.50
2017-11-03T09:40:17.684Z,94.50
2017-11-03T09:42:45.344Z,94.70
2017-11-03T09:45:12.908Z,94.50
2017-11-03T09:47:40.473Z,94.40
2017-11-03T09:50:08.008Z,94.10
2017-11-03T09:52:35.589Z,93.90
2017-11-03T09:55:03.143Z,94.20
2017-11-03T09:57:30.717Z,93.90
2017-11-03T09:59:58.303Z,94.10
2017-11-03T10:02:26.449Z,93.90
2017-11-03T10:04:53.993Z,93.90
2017-11-03T10:07:21.593Z,93.60
2017-11-03T10:09:49.908Z,93.10
2017-11-03T10:12:17.442Z,93.10
2017-11-03T10:14:45.017Z,93.20
2017-11-03T10:17:12.554Z,93.20
2017-11-03T10:19:40.908Z,93.00
2017-11-03T10:22:08.595Z,92.90
2017-11-03T10:24:37.110Z,93.10
2017-11-03T10:27:04.682Z,93.40
2017-11-03T10:29:32.270Z,93.30
2017-11-03T10:32:00.721Z,93.10
2017-11-03T10:34:28.297Z,93.10
2017-11-03T10:36:55.846Z,92.90
2017-11-03T10:39:23.386Z,93.10
2017-11-03T10:41:50.990Z,92.80
2017-11-03T10:44:19.298Z,91.70
2017-11-03T10:46:46.823Z,91.60
2017-11-03T10:49:15.149Z,91.80
2017-11-03T10:51:42.678Z,91.80
2017-11-03T10:54:10.257Z,92.00
2017-11-03T10:56:37.819Z,91.70
2017-11-03T10:59:05.335Z,91.60
2017-11-03T11:01:33.945Z,91.40
2017-11-03T11:04:01.494Z,91.40
2017-11-03T11:06:29.034Z,91.20
2017-11-03T11:08:57.339Z,91.40
2017-11-03T11:11:24.929Z,91.40
2017-11-03T11:13:52.483Z,91.20
2017-11-03T11:16:20.017Z,91.20
2017-11-03T11:18:47.601Z,90.90
2017-11-03T11:21:15.144Z,91.30
2017-11-03T11:23:42.676Z,91.20
2017-11-03T11:26:10.353Z,91.40
2017-11-03T11:28:37.924Z,91.40
2017-11-03T11:31:05.515Z,90.70
2017-11-03T11:33:33.105Z,90.70
2017-11-03T11:36:01.411Z,90.70
2017-11-03T11:38:28.960Z,90.70
2017-11-03T11:40:56.551Z,90.50
2017-11-03T11:43:24.084Z,89.70
2017-11-03T11:45:51.633Z,87.50
2017-11-03T11:48:19.181Z,87.50
2017-11-03T11:50:46.730Z,86.70
2017-11-03T11:53:15.058Z,85.80
2017-11-03T11:55:42.613Z,85.70
2017-11-03T11:58:10.156Z,84.90
2017-11-03T12:00:37.707Z,85.70
2017-11-03T12:03:05.282Z,84.70
2017-11-03T12:05:32.841Z,85.40
2017-11-03T12:08:00.391Z,83.80
2017-11-03T12:10:27.962Z,83.50
2017-11-03T12:12:55.522Z,84.20
2017-11-03T12:15:23.095Z,81.60
2017-11-03T12:17:50.723Z,81.90
2017-11-03T12:20:18.235Z,82.30
2017-11-03T12:22:46.648Z,81.20
2017-11-03T12:25:14.254Z,81.20
2017-11-03T12:27:41.800Z,79.80
2017-11-03T12:30:09.338Z,76.20
2017-11-03T12:32:36.920Z,75.50
2017-11-03T12:35:04.459Z,75.70
2017-11-03T12:37:32.602Z,73.30
2017-11-03T12:40:00.735Z,74.00
2017-11-03T12:42:29.142Z,74.10
2017-11-03T12:44:57.414Z,74.10
2017-11-03T12:47:24.957Z,74.50
2017-11-03T12:49:53.275Z,72.80
2017-11-03T12:52:21.044Z,72.80
2017-11-03T12:54:49.193Z,74.20
2017-11-03T12:57:17.887Z,75.10
2017-11-03T12:59:45.467Z,75.00
2017-11-03T13:02:13.012Z,75.70
2017-11-03T13:04:40.571Z,75.60
2017-11-03T13:07:08.117Z,74.90
2017-11-03T13:09:35.703Z,74.10
2017-11-03T13:12:03.339Z,74.50
2017-11-03T13:14:30.883Z,74.60
2017-11-03T13:16:58.443Z,75.30
2017-11-03T13:19:26.122Z,75.90
2017-11-03T13:21:53.693Z,76.70
2017-11-03T13:24:21.394Z,76.80
2017-11-03T13:26:49.693Z,76.70
2017-11-03T13:29:17.231Z,76.60
2017-11-03T13:31:45.666Z,77.20
2017-11-03T13:34:13.215Z,77.10
2017-11-03T13:36:40.779Z,77.70
2017-11-03T13:39:08.341Z,78.60
2017-11-03T13:41:35.873Z,77.20
2017-11-03T13:44:03.434Z,78.10
2017-11-03T13:46:31.095Z,78.60
2017-11-03T13:48:58.653Z,79.10
2017-11-03T13:51:26.198Z,79.00
2017-11-03T13:53:53.782Z,78.90
2017-11-03T13:56:21.354Z,78.80
2017-11-03T13:58:48.916Z,79.70
2017-11-03T14:01:16.671Z,79.60
2017-11-03T14:03:44.231Z,79.90
2017-11-03T14:06:11.764Z,80.50
2017-11-03T14:08:39.431Z,80.70
2017-11-03T14:11:06.994Z,80.90
2017-11-03T14:13:34.704Z,81.10
2017-11-03T14:16:03.071Z,81.80
2017-11-03T14:18:31.425Z,82.40
2017-11-03T14:20:59.014Z,82.40
2017-11-03T14:23:27.293Z,82.70
2017-11-03T14:25:54.899Z,82.60
2017-11-03T14:28:22.486Z,82.60
2017-11-03T14:30:50.213Z,81.00
2017-11-03T14:33:17.751Z,80.40
2017-11-03T14:35:46.098Z,79.20
2017-11-03T14:38:13.668Z,79.20
2017-11-03T14:40:41.211Z,78.90
2017-11-03T14:43:08.757Z,78.60
2017-11-03T14:45:36.350Z,78.30
2017-11-03T14:48:04.649Z,79.90
2017-11-03T14:50:32.283Z,79.80
2017-11-03T14:53:00.665Z,80.20
2017-11-03T14:55:28.971Z,80.80
2017-11-03T14:57:56.545Z,80.70
2017-11-03T15:00:24.112Z,81.40
2017-11-03T15:02:51.666Z,81.70
2017-11-03T15:05:19.218Z,81.90
2017-11-03T15:07:46.815Z,82.30
2017-11-03T15:10:14.360Z,82.50
2017-11-03T15:12:41.905Z,83.30
2017-11-03T15:15:10.258Z,83.40
2017-11-03T15:17:37.811Z,83.60
2017-11-03T15:20:05.344Z,83.80
2017-11-03T15:22:33.729Z,84.50
2017-11-03T15:25:02.031Z,85.20
2017-11-03T15:27:29.572Z,85.20
2017-11-03T15:29:57.167Z,85.60
2017-11-03T15:32:24.778Z,86.10
2017-11-03T15:34:53.077Z,86.80
2017-11-03T15:37:21.483Z,86.70
2017-11-03T15:39:49.099Z,87.20
2017-11-03T15:42:16.649Z,87.50
2017-11-03T15:44:45.123Z,88.00
2017-11-03T15:47:12.674Z,88.00
2017-11-03T15:49:40.220Z,87.50
2017-11-03T15:52:07.916Z,83.30
2017-11-03T15:54:35.490Z,84.50
2017-11-03T15:57:03.031Z,84.10
2017-11-03T15:59:30.565Z,82.50
2017-11-03T16:01:58.884Z,83.20
2017-11-03T16:04:26.456Z,83.20
2017-11-03T16:06:54.058Z,83.60
2017-11-03T16:09:22.163Z,83.80
2017-11-03T16:11:49.720Z,86.10
2017-11-03T16:14:17.400Z,85.20
2017-11-03T16:16:44.954Z,83.70
2017-11-03T16:19:12.604Z,84.10
2017-11-03T16:21:40.592Z,83.90
2017-11-03T16:24:08.138Z,83.80
2017-11-03T16:26:35.727Z,83.90
2017-11-03T16:29:03.757Z,84.00
2017-11-03T16:31:31.415Z,84.50
2017-11-03T16:33:58.973Z,85.60
2017-11-03T16:36:26.562Z,85.70
2017-11-03T16:38:54.097Z,86.20
2017-11-03T16:41:22.673Z,86.80
2017-11-03T16:43:50.275Z,87.50
2017-11-03T16:46:17.882Z,88.00
2017-11-03T16:48:45.429Z,88.90
2017-11-03T16:51:12.995Z,90.10
2017-11-03T16:53:40.566Z,90.20
2017-11-03T16:56:08.208Z,90.00
2017-11-03T16:58:36.119Z,89.80
2017-11-03T17:01:03.691Z,90.20
2017-11-03T17:03:31.243Z,90.10
2017-11-03T17:05:58.765Z,91.10
2017-11-03T17:08:26.339Z,91.20
2017-11-03T17:10:53.931Z,91.50
2017-11-03T17:13:21.509Z,91.40
2017-11-03T17:15:49.834Z,91.90
2017-11-03T17:18:17.395Z,91.90
2017-11-03T17:20:44.978Z,91.90
2017-11-03T17:23:12.550Z,92.20
2017-11-03T17:25:40.077Z,92.40
2017-11-03T17:28:07.837Z,92.30
2017-11-03T17:30:35.477Z,92.70
2017-11-03T17:33:03.031Z,92.60
2017-11-03T17:35:30.592Z,92.80
2017-11-03T17:37:58.153Z,92.90
2017-11-03T17:40:25.810Z,93.10
2017-11-03T17:42:53.683Z,93.30
2017-11-03T17:45:21.248Z,93.30
2017-11-03T17:47:48.814Z,93.60
2017-11-03T17:50:16.553Z,93.80
2017-11-03T17:52:44.157Z,93.90
2017-11-03T17:55:11.672Z,94.30
2017-11-03T17:57:39.278Z,94.60
2017-11-03T18:00:06.884Z,94.40
2017-11-03T18:02:34.443Z,94.50
2017-11-03T18:05:01.997Z,94.40
2017-11-03T18:07:29.571Z,94.70
2017-11-03T18:09:57.210Z,94.70
2017-11-03T18:12:24.787Z,94.80
2017-11-03T18:14:52.391Z,95.00
2017-11-03T18:17:19.935Z,95.00
2017-11-03T18:19:47.510Z,95.60
2017-11-03T18:22:15.090Z,95.30
2017-11-03T18:24:43.375Z,95.80
2017-11-03T18:27:10.961Z,95.80
2017-11-03T18:29:38.519Z,96.40
2017-11-03T18:32:06.057Z,96.10
2017-11-03T18:34:33.614Z,96.10
2017-11-03T18:37:01.178Z,96.30
2017-11-03T18:39:29.569Z,96.40
2017-11-03T18:41:57.392Z,96.50
2017-11-03T18:44:25.709Z,96.70
2017-11-03T18:46:53.249Z,96.70
2017-11-03T18:49:20.918Z,96.60
2017-11-03T18:51:48.479Z,97.00
2017-11-03T18:54:16.050Z,97.20
2017-11-03T18:56:43.608Z,97.10
2017-11-03T18:59:11.156Z,96.80
2017-11-03T19:01:38.691Z,96.90
2017-11-03T19:04:06.471Z,96.80
2017-11-03T19:06:34.036Z,97.10
2017-11-03T19:09:01.691Z,97.10
2017-11-03T19:11:29.259Z,97.20
2017-11-03T19:13:56.913Z,97.20
2017-11-03T19:16:24.453Z,97.40
2017-11-03T19:18:52.046Z,97.60
2017-11-03T19:21:19.602Z,97.40
2017-11-03T19:23:47.159Z,97.70
2017-11-03T19:26:14.754Z,97.70
2017-11-03T19:28:42.313Z,97.90
2017-11-03T19:31:10.626Z,98.00
2017-11-03T19:33:38.206Z,97.90
2017-11-03T19:36:05.853Z,98.10
2017-11-03T19:38:33.393Z,98.10
2017-11-03T19:41:00.954Z,98.10
2017-11-03T19:43:28.552Z,98.40
2017-11-03T19:45:56.132Z,98.20
2017-11-03T19:48:23.710Z,98.50
2017-11-03T19:50:51.246Z,98.20
2017-11-03T19:53:18.811Z,98.20
2017-11-03T19:55:46.350Z,98.20
2017-11-03T19:58:14.026Z,98.10
2017-11-03T20:00:41.590Z,98.10
2017-11-03T20:03:09.158Z,98.10
2017-11-03T20:05:36.756Z,97.90
2017-11-03T20:08:04.331Z,98.20
2017-11-03T20:10:31.957Z,98.10
2017-11-03T20:13:00.261Z,98.30
2017-11-03T20:15:27.839Z,98.20
2017-11-03T20:17:55.409Z,98.20
2017-11-03T20:20:22.971Z,98.40
2017-11-03T20:22:50.534Z,98.30
2017-11-03T20:25:18.091Z,98.30
2017-11-03T20:27:45.656Z,98.40
2017-11-03T20:30:13.219Z,98.60
2017-11-03T20:32:41.547Z,99.00
2017-11-03T20:35:09.104Z,98.70
2017-11-03T20:37:36.685Z,98.80
2017-11-03T20:40:04.279Z,98.80
2017-11-03T20:42:32.565Z,98.60
2017-11-03T20:45:00.171Z,98.60
2017-11-03T20:47:27.712Z,98.70
2017-11-03T20:49:55.364Z,98.80
2017-11-03T20:52:22.945Z,98.70
2017-11-03T20:54:50.507Z,99.00
2017-11-03T20:57:18.111Z,98.90
2017-11-03T20:59:46.521Z,98.90
2017-11-03T21:02:14.083Z,98.80
2017-11-03T21:04:41.686Z,99.00
2017-11-03T21:07:09.758Z,99.20
2017-11-03T21:09:37.367Z,99.40
2017-11-03T21:12:05.044Z,99.50
2017-11-03T21:14:32.633Z,99.40
2017-11-03T21:17:00.185Z,99.20
2017-11-03T21:19:28.106Z,99.30
2017-11-03T21:21:55.703Z,99.50
2017-11-03T21:24:23.264Z,99.40
2017-11-03T21:26:50.927Z,99.30
2017-11-03T21:29:18.540Z,99.30
2017-11-03T21:31:46.299Z,99.30
2017-11-03T21:34:13.854Z,99.40
2017-11-03T21:36:41.426Z,99.50
2017-11-03T21:39:09.007Z,99.40
2017-11-03T21:41:36.678Z,99.60
2017-11-03T21:44:04.284Z,99.50
2017-11-03T21:46:31.882Z,99.50
2017-11-03T21:48:59.457Z,99.60
2017-11-03T21:51:27.099Z,99.60
2017-11-03T21:53:54.852Z,99.60
2017-11-03T21:56:22.500Z,99.80
2017-11-03T21:58:50.114Z,99.70
2017-11-03T22:01:17.730Z,99.60
2017-11-03T22:03:45.292Z,99.70
2017-11-03T22:06:12.844Z,99.80
2017-11-03T22:08:40.423Z,99.80
2017-11-03T22:11:07.986Z,99.70
2017-11-03T22:13:35.540Z,99.80
2017-11-03T22:16:03.101Z,99.80
2017-11-03T22:18:30.689Z,99.80
2017-11-03T22:20:59.052Z,99.90
2017-11-03T22:23:26.605Z,99.90
2017-11-03T22:25:54.154Z,99.80
2017-11-03T22:28:21.757Z,99.80
2017-11-03T22:30:50.088Z,99.80
2017-11-03T22:33:17.666Z,99.80
2017-11-03T22:35:45.230Z,99.90
2017-11-03T22:38:12.797Z,99.90
2017-11-03T22:40:41.129Z,99.80
2017-11-03T22:43:08.774Z,99.80
2017-11-03T22:45:36.353Z,99.80
2017-11-03T22:48:04.000Z,99.70
2017-11-03T22:50:31.534Z,99.70
2017-11-03T22:52:59.131Z,99.80
2017-11-03T22:55:26.664Z,99.80
2017-11-03T22:57:54.252Z,99.90
2017-11-03T23:00:21.801Z,99.90
2017-11-03T23:02:49.346Z,99.90
2017-11-03T23:05:16.895Z,99.90
2017-11-03T23:07:44.474Z,99.90
2017-11-03T23:10:12.138Z,99.90
2017-11-03T23:12:39.725Z,99.90
2017-11-03T23:15:07.289Z,99.90
2017-11-03T23:17:34.848Z,99.90
2017-11-03T23:20:03.190Z,99.90
2017-11-03T23:22:30.885Z,99.90
2017-11-03T23:24:58.496Z,99.90
2017-11-03T23:27:26.023Z,99.90
2017-11-03T23:29:53.608Z,99.90
2017-11-03T23:32:21.165Z,99.90
2017-11-03T23:34:48.744Z,99.90
2017-11-03T23:37:16.378Z,99.90
2017-11-03T23:39:43.918Z,99.90
2017-11-03T23:42:12.318Z,99.90
2017-11-03T23:44:39.865Z,99.90
2017-11-03T23:47:07.468Z,99.90
2017-11-03T23:49:35.024Z,99.90
2017-11-03T23:52:02.579Z,99.90
2017-11-03T23:54:30.129Z,99.90
2017-11-03T23:56:57.708Z,99.90
2017-11-03T23:59:25.286Z,99.90
